Terminal Aerodrome Forecast
Issued by NWS

Home | Current Version | Previous Version | Text Only | Print | Product List | Glossary On
Versions: 1 2 3 4 5 6 7 8 9 10 11 12 13
000
FTUS45 KTFX 071120
TAFBZN
TAF
KBZN 071120Z 0712/0812 VRB05KT P6SM SKC
     FM071700 VRB05KT P6SM SCT080 BKN120
     FM072200 35008KT P6SM VCSH SCT080 BKN100 PROB30 0722/0802
      VRB15G25KT -TSRA BKN050CB
     FM080200 16005KT P6SM BKN100
     FM080800 VRB04KT P6SM SCT100=

USA.gov is the U.S. government's official web portal to all federal, state and local government web resources and services.